createdAt,value
2022-12-19T00:04:32.765Z,3.74
2022-12-19T00:09:31.540Z,3.84
2022-12-19T00:14:31.930Z,3.77
2022-12-19T00:19:32.223Z,3.99
2022-12-19T00:24:31.046Z,3.91
2022-12-19T00:29:29.825Z,3.75
2022-12-19T00:34:28.699Z,3.73
2022-12-19T00:39:28.926Z,3.40
2022-12-19T00:44:27.686Z,3.50
2022-12-19T00:49:26.412Z,3.50
2022-12-19T00:54:25.356Z,3.13
2022-12-19T00:59:26.746Z,3.14
2022-12-19T01:04:29.394Z,2.98
2022-12-19T01:09:28.803Z,2.98
2022-12-19T01:14:28.968Z,2.93
2022-12-19T01:19:28.592Z,2.82
2022-12-19T01:24:27.474Z,2.78
2022-12-19T01:29:26.313Z,2.81
2022-12-19T01:34:27.701Z,2.89
2022-12-19T01:39:27.547Z,2.93
2022-12-19T01:44:29.170Z,2.71
2022-12-19T01:49:32.631Z,2.82
2022-12-19T01:54:35.646Z,2.87
2022-12-19T01:59:38.935Z,2.66
2022-12-19T02:04:42.640Z,2.68
2022-12-19T02:09:41.573Z,2.69
2022-12-19T02:14:40.941Z,2.67
2022-12-19T02:20:19.407Z,2.54
2022-12-19T02:25:56.905Z,2.26
2022-12-19T02:31:16.468Z,2.35
2022-12-19T02:36:20.693Z,2.60
2022-12-19T02:41:25.927Z,2.45
2022-12-19T02:46:26.738Z,2.16
2022-12-19T02:51:26.334Z,2.11
2022-12-19T02:56:39.548Z,2.01
2022-12-19T03:01:50.103Z,2.18
2022-12-19T03:06:55.079Z,2.11
2022-12-19T03:12:02.849Z,1.88
2022-12-19T03:17:07.126Z,1.76
2022-12-19T03:22:06.381Z,1.62
2022-12-19T03:27:10.011Z,1.77
2022-12-19T03:32:17.519Z,1.77
2022-12-19T03:37:19.323Z,1.50
2022-12-19T03:42:37.290Z,1.60
2022-12-19T03:47:41.614Z,1.84
2022-12-19T03:52:45.404Z,2.01
2022-12-19T03:57:45.890Z,1.94
2022-12-19T04:02:49.071Z,1.85
2022-12-19T04:07:50.117Z,1.64
2022-12-19T04:12:54.504Z,1.82
2022-12-19T04:17:58.684Z,1.75
2022-12-19T04:23:02.465Z,1.71
2022-12-19T04:28:06.159Z,1.82
2022-12-19T04:33:06.530Z,1.77
2022-12-19T04:38:07.759Z,1.77
2022-12-19T04:43:08.481Z,1.56
2022-12-19T04:48:09.000Z,1.50
2022-12-19T04:53:07.970Z,1.54
2022-12-19T04:58:08.230Z,1.63
2022-12-19T05:03:08.718Z,1.64
2022-12-19T05:08:07.898Z,1.54
2022-12-19T05:13:06.828Z,1.40
2022-12-19T05:18:05.948Z,0.91
2022-12-19T05:23:11.389Z,0.88
2022-12-19T05:28:15.818Z,0.90
2022-12-19T05:33:14.647Z,0.94
2022-12-19T05:38:15.091Z,1.08
2022-12-19T05:43:13.960Z,0.72
2022-12-19T05:48:13.765Z,0.75
2022-12-19T05:53:14.095Z,0.73
2022-12-19T05:58:13.340Z,0.69
2022-12-19T06:03:12.209Z,1.01
2022-12-19T06:08:11.408Z,0.64
2022-12-19T06:13:11.608Z,0.63
2022-12-19T06:18:10.445Z,0.57
2022-12-19T06:23:10.603Z,0.50
2022-12-19T06:28:11.153Z,0.86
2022-12-19T06:33:10.173Z,1.01
2022-12-19T06:38:09.285Z,0.97
2022-12-19T06:43:08.290Z,1.13
2022-12-19T06:48:08.680Z,1.17
2022-12-19T06:53:07.543Z,1.53
2022-12-19T06:58:06.760Z,1.13
2022-12-19T07:03:09.109Z,0.72
2022-12-19T07:08:09.700Z,0.90
2022-12-19T07:13:08.497Z,0.72
2022-12-19T07:18:09.556Z,0.80
2022-12-19T07:23:12.322Z,0.98
2022-12-19T07:28:13.185Z,0.90
2022-12-19T07:33:15.630Z,0.65
2022-12-19T07:38:18.547Z,0.48
2022-12-19T07:43:17.406Z,0.50
2022-12-19T07:48:16.166Z,0.63
2022-12-19T07:53:15.013Z,0.93
2022-12-19T07:58:18.297Z,1.23
2022-12-19T08:03:17.040Z,0.78
2022-12-19T08:08:16.032Z,1.02
2022-12-19T08:13:14.814Z,1.36
2022-12-19T08:18:15.085Z,1.68
2022-12-19T08:23:27.181Z,1.27
2022-12-19T08:28:26.008Z,1.12
2022-12-19T08:33:27.277Z,1.17
2022-12-19T08:38:30.018Z,1.40
2022-12-19T08:43:32.505Z,1.57
2022-12-19T08:48:33.515Z,1.44
2022-12-19T08:53:35.387Z,1.69
2022-12-19T08:58:34.235Z,2.10
2022-12-19T09:03:38.274Z,2.34
2022-12-19T09:08:53.888Z,2.60
2022-12-19T09:13:59.991Z,2.60
2022-12-19T09:19:00.298Z,2.84
2022-12-19T09:24:08.093Z,3.17
2022-12-19T09:29:19.897Z,3.11
2022-12-19T09:34:36.167Z,3.36
2022-12-19T09:39:37.766Z,3.59
2022-12-19T09:44:52.298Z,3.52
2022-12-19T09:49:55.295Z,3.37
2022-12-19T09:54:58.764Z,3.42
2022-12-19T10:00:02.091Z,3.82
2022-12-19T10:05:40.557Z,3.91
2022-12-19T10:12:40.544Z,3.98
2022-12-19T10:16:22.600Z,3.79
2022-12-19T10:22:07.544Z,3.98
2022-12-19T10:26:53.669Z,4.33
2022-12-19T10:31:59.862Z,4.12
2022-12-19T10:37:27.131Z,4.42
2022-12-19T10:42:33.880Z,4.28
2022-12-19T10:47:33.190Z,4.13
2022-12-19T10:53:07.510Z,4.30
2022-12-19T10:58:24.246Z,5.04
2022-12-19T11:03:26.334Z,5.34
2022-12-19T11:08:28.723Z,5.22
2022-12-19T11:17:44.427Z,5.32
2022-12-19T11:24:34.965Z,5.23
2022-12-19T11:29:34.560Z,5.48
2022-12-19T11:35:17.478Z,6.18
2022-12-19T11:40:28.158Z,5.87
2022-12-19T11:45:36.049Z,5.36
2022-12-19T11:50:40.392Z,5.47
2022-12-19T11:55:45.569Z,5.61
2022-12-19T12:00:52.705Z,5.79
2022-12-19T12:05:55.439Z,5.79
2022-12-19T12:16:04.272Z,5.87
2022-12-19T12:31:08.392Z,6.09
2022-12-19T12:31:21.673Z,5.86
2022-12-19T12:31:43.768Z,6.50
2022-12-19T12:35:31.716Z,6.57
2022-12-19T12:44:09.511Z,6.47
2022-12-19T12:49:24.362Z,6.51
2022-12-19T12:54:32.408Z,7.03
2022-12-19T12:59:33.429Z,7.85
2022-12-19T13:04:35.045Z,7.68
2022-12-19T13:09:47.659Z,8.00
2022-12-19T13:14:54.329Z,7.98
2022-12-19T13:20:16.042Z,7.71
2022-12-19T13:25:52.672Z,7.28
2022-12-19T13:31:21.153Z,6.99
2022-12-19T13:39:54.618Z,6.72
2022-12-19T13:44:24.418Z,6.74
2022-12-19T13:48:36.393Z,7.06
2022-12-19T13:53:36.098Z,6.72
2022-12-19T13:58:45.970Z,7.01
2022-12-19T14:03:53.050Z,7.15
2022-12-19T14:10:19.927Z,7.13
2022-12-19T14:14:35.608Z,7.00
2022-12-19T14:19:41.528Z,6.63
2022-12-19T14:24:44.538Z,6.21
2022-12-19T14:30:30.485Z,6.09
2022-12-19T14:36:07.679Z,5.82
2022-12-19T14:43:14.869Z,5.30
2022-12-19T14:52:36.051Z,5.21
2022-12-19T14:54:28.081Z,5.16
2022-12-19T14:58:54.599Z,4.88
2022-12-19T15:04:50.456Z,4.14
2022-12-19T15:11:05.358Z,4.01
2022-12-19T15:15:44.107Z,3.72
2022-12-19T15:20:53.491Z,3.50
2022-12-19T15:26:04.693Z,3.14
2022-12-19T15:31:11.698Z,3.01
2022-12-19T15:36:11.149Z,3.07
2022-12-19T15:41:15.424Z,2.84
2022-12-19T15:46:15.308Z,2.63
2022-12-19T15:51:14.847Z,2.54
2022-12-19T15:56:28.476Z,2.40
2022-12-19T16:01:27.869Z,2.29
2022-12-19T16:06:27.236Z,2.23
2022-12-19T16:11:27.624Z,2.02
2022-12-19T16:16:26.575Z,1.75
2022-12-19T16:21:33.675Z,1.73
2022-12-19T16:26:37.168Z,1.58
2022-12-19T16:31:36.073Z,1.47
2022-12-19T16:36:34.913Z,1.36
2022-12-19T16:41:41.753Z,1.40
2022-12-19T16:46:46.962Z,1.29
2022-12-19T16:51:49.104Z,1.31
2022-12-19T16:56:57.934Z,1.17
2022-12-19T17:01:57.976Z,1.07
2022-12-19T17:06:57.473Z,1.06
2022-12-19T17:12:00.259Z,1.06
2022-12-19T17:17:00.705Z,1.14
2022-12-19T17:21:59.547Z,0.97
2022-12-19T17:26:59.627Z,0.97
2022-12-19T17:31:58.520Z,1.05
2022-12-19T17:36:58.717Z,1.12
2022-12-19T17:42:01.963Z,1.09
2022-12-19T17:47:00.792Z,1.10
2022-12-19T17:52:02.639Z,1.21
2022-12-19T17:57:03.337Z,1.20
2022-12-19T18:02:02.605Z,1.18
2022-12-19T18:07:02.783Z,1.18
2022-12-19T18:12:03.021Z,1.07
2022-12-19T18:17:02.834Z,1.18
2022-12-19T18:22:01.665Z,1.12
2022-12-19T18:27:00.617Z,1.21
2022-12-19T18:32:00.961Z,1.17
2022-12-19T18:36:59.964Z,1.21
2022-12-19T18:41:58.956Z,1.08
2022-12-19T18:46:57.928Z,0.86
2022-12-19T18:51:58.067Z,0.81
2022-12-19T18:56:57.534Z,0.54
2022-12-19T19:01:56.749Z,0.43
2022-12-19T19:06:55.928Z,0.35
2022-12-19T19:11:59.446Z,0.33
2022-12-19T19:17:01.812Z,0.38
2022-12-19T19:22:03.268Z,0.58
2022-12-19T19:27:03.762Z,0.45
2022-12-19T19:32:03.390Z,0.74
2022-12-19T19:37:05.083Z,0.80
2022-12-19T19:42:06.913Z,0.77
2022-12-19T19:47:10.499Z,0.70
2022-12-19T19:52:10.447Z,0.94
2022-12-19T19:57:11.693Z,0.84
2022-12-19T20:02:11.472Z,0.68
2022-12-19T20:07:10.709Z,0.78
2022-12-19T20:12:11.235Z,0.67
2022-12-19T20:17:11.917Z,0.71
2022-12-19T20:22:11.151Z,0.81
2022-12-19T20:27:11.775Z,1.13
2022-12-19T20:32:10.696Z,1.23
2022-12-19T20:37:10.105Z,1.22
2022-12-19T20:42:09.643Z,1.10
2022-12-19T20:47:09.975Z,1.32
2022-12-19T20:52:09.077Z,1.43
2022-12-19T20:57:07.815Z,1.53
2022-12-19T21:02:07.290Z,1.37
2022-12-19T21:07:08.305Z,1.42
2022-12-19T21:12:07.522Z,1.52
2022-12-19T21:17:06.538Z,1.51
2022-12-19T21:22:05.405Z,1.62
2022-12-19T21:27:06.072Z,1.67
2022-12-19T21:32:04.965Z,1.78
2022-12-19T21:37:03.811Z,1.75
2022-12-19T21:42:09.335Z,1.72
2022-12-19T21:47:10.995Z,1.72
2022-12-19T21:52:10.232Z,1.84
2022-12-19T21:57:09.256Z,1.96
2022-12-19T22:02:11.789Z,1.88
2022-12-19T22:07:11.436Z,1.89
2022-12-19T22:12:10.818Z,1.86
2022-12-19T22:17:11.014Z,1.83
2022-12-19T22:22:09.832Z,1.90
2022-12-19T22:27:08.676Z,1.87
2022-12-19T22:32:07.724Z,1.80
2022-12-19T22:37:08.090Z,1.64
2022-12-19T22:42:06.886Z,1.34
2022-12-19T22:47:05.739Z,1.33
2022-12-19T22:52:04.849Z,1.40
2022-12-19T22:57:05.181Z,1.40
2022-12-19T23:02:04.300Z,1.48
2022-12-19T23:07:03.701Z,1.46
2022-12-19T23:12:02.620Z,1.63
2022-12-19T23:17:02.831Z,1.52
2022-12-19T23:22:02.033Z,1.40
2022-12-19T23:27:01.049Z,1.06
2022-12-19T23:32:00.060Z,0.98
2022-12-19T23:37:10.586Z,0.79
2022-12-19T23:42:10.215Z,0.39
2022-12-19T23:47:09.517Z,0.38
2022-12-19T23:52:09.916Z,0.55
2022-12-19T23:57:09.108Z,0.40
